Time;durP1;ratioP1;P1;durP2;ratioP2;P2;SDS_P1;SDS_P2;PMS_P1;PMS_P2;Temp;Humidity;BMP_temperature;BMP_pressure;BME280_temperature;BME280_humidity;BME280_pressure;Samples;Min_cycle;Max_cycle;Signal;HPM_P1;HPM_P2
2023/04/25 00:00:53;;;;;;;21.50;15.00;;;;;;;8.39;65.97;99822.77;105756;1253;60861;-71
2023/04/25 00:03:20;;;;;;;20.00;15.00;;;;;;;8.31;66.13;99818.23;105738;1254;67374;-73
2023/04/25 00:05:48;;;;;;;19.80;13.80;;;;;;;8.25;66.27;99815.58;105908;1257;61180;-70
2023/04/25 00:08:15;;;;;;;20.30;13.30;;;;;;;8.19;66.38;99814.48;106013;1253;66333;-73
2023/04/25 00:10:42;;;;;;;19.40;14.50;;;;;;;8.11;66.48;99810.34;105778;1255;60573;-73
2023/04/25 00:13:11;;;;;;;19.80;14.00;;;;;;;8.06;66.71;99807.06;105621;1256;60461;-74
2023/04/25 00:15:38;;;;;;;24.10;15.30;;;;;;;8.05;66.96;99805.23;105707;1253;67711;-72
2023/04/25 00:18:06;;;;;;;26.10;17.00;;;;;;;8.07;67.04;99803.28;105748;1257;60521;-71
2023/04/25 00:20:33;;;;;;;25.40;17.30;;;;;;;8.10;67.02;99805.70;105792;1253;65206;-73
2023/04/25 00:23:00;;;;;;;24.60;16.50;;;;;;;8.10;66.99;99806.42;105610;1255;60420;-73
2023/04/25 00:25:27;;;;;;;24.10;15.70;;;;;;;8.07;66.97;99807.19;105809;1256;60429;-72
2023/04/25 00:27:54;;;;;;;26.00;15.70;;;;;;;8.03;67.00;99803.08;105761;1256;67723;-72
2023/04/25 00:30:21;;;;;;;26.80;15.80;;;;;;;7.99;67.09;99800.02;105682;1257;60436;-71
2023/04/25 00:32:49;;;;;;;30.70;17.40;;;;;;;7.96;67.13;99793.65;105626;1256;65493;-71
2023/04/25 00:35:16;;;;;;;29.90;17.50;;;;;;;7.92;67.20;99793.06;105690;1257;60421;-72
2023/04/25 00:37:43;;;;;;;25.60;17.70;;;;;;;7.89;67.29;99789.30;105642;1259;60486;-69
2023/04/25 00:40:10;;;;;;;26.10;17.20;;;;;;;7.84;67.46;99785.43;105738;1252;66624;-70
2023/04/25 00:42:38;;;;;;;26.20;15.60;;;;;;;7.80;67.58;99784.70;105700;1253;60955;-69
2023/04/25 00:45:07;;;;;;;23.50;16.10;;;;;;;7.77;67.68;99781.42;105587;1254;66530;-72
2023/04/25 00:47:34;;;;;;;19.40;14.00;;;;;;;7.75;67.80;99785.48;106096;1253;60457;-69
2023/04/25 00:50:01;;;;;;;21.70;13.80;;;;;;;7.70;67.77;99786.67;105603;1257;60464;-69
2023/04/25 00:52:28;;;;;;;19.40;13.40;;;;;;;7.66;67.75;99787.16;105966;1254;66596;-70
2023/04/25 00:54:55;;;;;;;21.40;14.20;;;;;;;7.63;67.72;99786.38;105578;1253;61162;-70
2023/04/25 00:57:22;;;;;;;23.20;16.10;;;;;;;7.59;67.85;99785.96;105585;1256;65216;-69
2023/04/25 00:59:49;;;;;;;23.50;16.50;;;;;;;7.58;67.97;99790.65;105590;1255;60540;-71
2023/04/25 01:02:16;;;;;;;23.40;17.10;;;;;;;7.56;68.08;99794.48;105336;1253;60336;-70
2023/04/25 01:04:43;;;;;;;25.20;16.80;;;;;;;7.55;68.24;99794.16;105602;1253;66582;-68
2023/04/25 01:07:10;;;;;;;30.20;16.80;;;;;;;7.55;68.37;99794.86;105605;1259;60896;-71
2023/04/25 01:09:37;;;;;;;25.40;18.20;;;;;;;7.56;68.52;99792.02;105576;1256;65465;-67
2023/04/25 01:12:04;;;;;;;22.80;17.80;;;;;;;7.56;68.66;99791.15;105928;1257;60905;-69
2023/04/25 01:14:31;;;;;;;23.10;17.40;;;;;;;7.55;68.78;99792.76;105457;1253;60553;-69
2023/04/25 01:16:58;;;;;;;24.40;17.60;;;;;;;7.59;68.75;99793.52;105472;1259;67676;-69
2023/04/25 01:19:25;;;;;;;25.60;17.50;;;;;;;7.63;68.80;99791.79;105525;1253;60457;-69
2023/04/25 01:21:53;;;;;;;23.30;17.00;;;;;;;7.66;68.85;99790.02;105523;1256;66245;-71
2023/04/25 01:24:20;;;;;;;23.40;16.40;;;;;;;7.67;68.83;99791.00;105273;1260;60480;-69
2023/04/25 01:26:50;;;;;;;22.40;16.00;;;;;;;7.66;68.64;99794.06;105550;1253;60409;-69
2023/04/25 01:29:21;;;;;;;24.70;17.50;;;;;;;7.61;68.58;99790.05;106483;1256;67443;-70
2023/04/25 01:31:48;;;;;;;23.80;17.40;;;;;;;7.58;68.64;99788.14;105637;1256;60833;-68
2023/04/25 01:34:15;;;;;;;22.30;17.40;;;;;;;7.57;68.60;99787.05;105574;1254;65270;-69
2023/04/25 01:36:42;;;;;;;25.60;17.40;;;;;;;7.55;68.59;99788.60;106082;1253;60500;-68
2023/04/25 01:39:09;;;;;;;24.30;17.20;;;;;;;7.51;68.57;99786.44;105707;1253;60470;-69
2023/04/25 01:41:37;;;;;;;22.00;17.20;;;;;;;7.49;68.58;99779.43;105584;1258;68125;-70
2023/04/25 01:44:04;;;;;;;21.10;16.60;;;;;;;7.48;68.82;99775.65;105534;1253;60882;-70
2023/04/25 01:46:33;;;;;;;24.10;16.80;;;;;;;7.47;68.82;99778.14;105539;1253;65344;-69
2023/04/25 01:49:00;;;;;;;24.20;17.70;;;;;;;7.46;68.68;99777.16;105669;1255;60535;-70
2023/04/25 01:51:28;;;;;;;21.40;16.70;;;;;;;7.44;68.75;99770.33;105851;1256;60383;-70
2023/04/25 01:53:55;;;;;;;26.00;17.80;;;;;;;7.43;68.86;99764.95;105612;1253;282307;-68
2023/04/25 01:56:22;;;;;;;24.40;18.30;;;;;;;7.43;68.68;99767.08;105521;1253;60870;-71
2023/04/25 01:58:49;;;;;;;24.30;18.30;;;;;;;7.40;68.68;99763.95;105600;1254;65283;-69
2023/04/25 02:01:19;;;;;;;22.90;17.40;;;;;;;7.38;68.69;99762.72;105432;1253;60466;-70
2023/04/25 02:03:52;;;;;;;24.30;18.00;;;;;;;7.37;68.65;99760.35;105522;1259;60311;-69
2023/04/25 02:06:25;;;;;;;24.60;17.30;;;;;;;7.35;68.70;99759.98;105465;1253;66471;-69
2023/04/25 02:08:55;;;;;;;25.00;18.10;;;;;;;7.31;68.86;99756.23;105704;1253;60602;-70
2023/04/25 02:11:22;;;;;;;24.80;18.30;;;;;;;7.28;68.88;99755.10;105607;1253;66460;-70
2023/04/25 02:14:28;;;;;;;23.40;17.80;;;;;;;7.25;68.87;99754.41;105324;1260;60367;-70
2023/04/25 02:17:12;;;;;;;24.00;17.80;;;;;;;7.22;68.86;99752.36;105070;1261;60583;-68
2023/04/25 02:19:39;;;;;;;26.50;20.30;;;;;;;7.18;68.87;99751.06;105465;1256;67593;-70
2023/04/25 02:22:07;;;;;;;26.20;19.20;;;;;;;7.19;68.82;99749.77;105371;1253;60682;-69
2023/04/25 02:24:34;;;;;;;23.20;18.80;;;;;;;7.20;68.83;99750.64;105589;1255;66545;-70
2023/04/25 02:27:01;;;;;;;23.70;19.20;;;;;;;7.17;68.92;99746.98;105782;1254;60924;-69
2023/04/25 02:29:29;;;;;;;25.20;17.70;;;;;;;7.14;69.16;99743.19;105516;1257;60557;-69
2023/04/25 02:31:56;;;;;;;22.30;17.40;;;;;;;7.11;69.30;99742.33;105618;1253;67769;-70
2023/04/25 02:34:25;;;;;;;24.90;18.20;;;;;;;7.11;69.41;99747.08;105533;1253;62272;-68
2023/04/25 02:36:52;;;;;;;22.80;17.50;;;;;;;7.10;69.31;99744.86;105597;1253;66558;-69
2023/04/25 02:39:21;;;;;;;24.50;18.00;;;;;;;7.10;69.18;99744.33;105799;1253;60441;-70
2023/04/25 02:41:49;;;;;;;23.70;18.20;;;;;;;7.10;69.09;99742.27;105569;1257;61117;-72
2023/04/25 02:44:15;;;;;;;21.30;17.30;;;;;;;7.07;69.17;99742.27;105867;1253;66830;-70
2023/04/25 02:46:44;;;;;;;21.70;17.20;;;;;;;7.07;69.34;99740.94;105749;1253;60345;-71
2023/04/25 02:49:12;;;;;;;22.70;17.70;;;;;;;7.07;69.40;99744.58;105661;1253;66527;-69
2023/04/25 02:51:41;;;;;;;24.50;16.60;;;;;;;7.06;69.30;99745.88;105675;1253;60553;-70
2023/04/25 02:54:07;;;;;;;19.50;15.90;;;;;;;7.04;69.30;99748.27;105724;1253;60352;-68
2023/04/25 02:56:38;;;;;;;20.70;15.80;;;;;;;7.02;69.33;99749.45;105583;1258;67869;-69
2023/04/25 02:59:08;;;;;;;21.10;15.50;;;;;;;6.98;69.23;99749.96;105641;1257;61519;-70
2023/04/25 03:01:35;;;;;;;21.30;16.30;;;;;;;6.95;69.16;99748.66;105860;1257;66500;-70
2023/04/25 03:04:02;;;;;;;21.60;17.20;;;;;;;6.93;69.07;99747.05;105746;1254;60522;-70
2023/04/25 03:06:29;;;;;;;26.40;17.50;;;;;;;6.91;69.04;99748.92;105696;1257;60317;-72
2023/04/25 03:08:56;;;;;;;24.90;17.20;;;;;;;6.89;69.10;99748.92;105836;1253;67459;-68
2023/04/25 03:11:25;;;;;;;26.00;17.90;;;;;;;6.86;69.09;99750.85;105581;1252;60356;-69
2023/04/25 03:13:52;;;;;;;24.80;18.70;;;;;;;6.86;69.16;99751.40;105756;1252;65476;-70
2023/04/25 03:16:20;;;;;;;27.50;18.90;;;;;;;6.86;69.36;99755.23;105489;1253;60526;-69
2023/04/25 03:18:50;;;;;;;26.00;19.50;;;;;;;6.86;69.45;99757.20;105458;1254;60329;-69
2023/04/25 03:21:17;;;;;;;24.50;17.80;;;;;;;6.85;69.53;99754.98;105580;1253;66507;-68
2023/04/25 03:23:44;;;;;;;21.60;17.50;;;;;;;6.84;69.67;99755.20;105566;1253;60633;-70
2023/04/25 03:26:11;;;;;;;26.20;18.80;;;;;;;6.86;69.95;99756.80;105560;1257;65476;-68
2023/04/25 03:28:39;;;;;;;24.60;19.10;;;;;;;6.89;70.23;99756.42;105952;1257;60644;-69
2023/04/25 03:31:06;;;;;;;28.30;18.50;;;;;;;6.93;70.29;99755.58;105559;1253;60461;-68
2023/04/25 03:33:34;;;;;;;26.80;19.80;;;;;;;6.97;70.41;99754.30;105713;1253;66609;-70
2023/04/25 03:36:01;;;;;;;29.40;20.90;;;;;;;7.02;70.49;99754.97;105745;1252;60937;-69
2023/04/25 03:38:29;;;;;;;30.00;19.00;;;;;;;7.09;70.53;99752.31;105808;1256;66572;-70
2023/04/25 03:40:56;;;;;;;26.90;20.10;;;;;;;7.16;70.61;99751.23;105443;1253;60466;-72
2023/04/25 03:43:33;;;;;;;24.40;18.70;;;;;;;7.23;70.49;99750.91;105607;1256;60362;-72
2023/04/25 03:46:03;;;;;;;29.20;21.00;;;;;;;7.27;70.43;99749.87;105527;1253;66609;-69
2023/04/25 03:48:32;;;;;;;30.30;23.20;;;;;;;7.32;70.35;99745.15;105592;1259;60371;-71
2023/04/25 03:51:00;;;;;;;31.20;24.10;;;;;;;7.38;70.46;99745.40;105587;1256;66529;-70
2023/04/25 03:53:29;;;;;;;30.50;23.30;;;;;;;7.44;70.50;99742.80;105700;1256;60537;-69
2023/04/25 03:56:16;;;;;;;38.90;28.50;;;;;;;7.50;70.49;99740.77;105634;1253;60636;-71
2023/04/25 03:58:44;;;;;;;37.80;27.80;;;;;;;7.56;70.70;99741.17;105460;1253;66457;-70
2023/04/25 04:01:12;;;;;;;38.20;28.20;;;;;;;7.64;70.86;99739.38;105638;1257;60776;-69
2023/04/25 04:03:40;;;;;;;33.10;23.30;;;;;;;7.71;70.92;99738.24;105451;1253;66434;-70
2023/04/25 04:06:09;;;;;;;30.50;23.00;;;;;;;7.79;71.05;99736.77;105654;1256;60486;-67
2023/04/25 04:08:39;;;;;;;29.80;23.50;;;;;;;7.86;71.14;99734.85;105595;1254;60527;-69
2023/04/25 04:11:06;;;;;;;28.70;21.20;;;;;;;7.93;71.19;99736.19;105586;1257;67781;-71
2023/04/25 04:13:33;;;;;;;25.00;19.90;;;;;;;8.00;71.24;99735.08;105477;1253;60996;-68
2023/04/25 04:16:01;;;;;;;26.70;19.10;;;;;;;8.09;71.24;99737.40;105737;1256;66580;-69
2023/04/25 04:18:28;;;;;;;25.20;18.50;;;;;;;8.16;71.19;99734.70;105674;1257;60424;-69
2023/04/25 04:20:57;;;;;;;21.80;17.50;;;;;;;8.23;71.04;99734.20;105685;1253;60330;-70
2023/04/25 04:23:28;;;;;;;19.70;15.00;;;;;;;8.29;71.01;99734.54;105633;1253;66764;-72
2023/04/25 04:25:56;;;;;;;19.20;14.50;;;;;;;8.37;70.90;99729.42;105686;1253;60945;-68
2023/04/25 04:28:43;;;;;;;18.60;14.10;;;;;;;8.46;70.83;99726.05;105504;1254;66152;-69
2023/04/25 04:31:37;;;;;;;19.50;13.60;;;;;;;8.56;70.72;99720.14;105419;1262;60464;-70
2023/04/25 04:34:05;;;;;;;16.90;13.30;;;;;;;8.66;70.73;99717.21;105431;1254;60352;-71
2023/04/25 04:36:33;;;;;;;15.20;12.60;;;;;;;8.77;70.57;99716.14;105677;1253;68005;-70
2023/04/25 04:39:03;;;;;;;15.90;12.60;;;;;;;8.87;70.39;99719.85;105659;1253;60937;-74
2023/04/25 04:41:36;;;;;;;18.50;14.00;;;;;;;8.97;70.34;99720.59;105690;1254;65214;-70
2023/04/25 04:44:32;;;;;;;16.40;12.10;;;;;;;9.10;70.34;99719.54;105554;1258;60436;-68
2023/04/25 04:47:13;;;;;;;16.70;11.60;;;;;;;9.22;70.25;99719.02;105585;1252;60554;-69
2023/04/25 04:50:19;;;;;;;16.20;11.50;;;;;;;9.37;70.21;99718.80;105185;1263;67768;-69
2023/04/25 04:53:12;;;;;;;11.60;8.30;;;;;;;9.53;70.09;99717.46;105348;1259;60423;-69
2023/04/25 04:55:58;;;;;;;13.90;10.10;;;;;;;9.67;69.83;99711.30;105456;1253;67212;-72
2023/04/25 04:58:36;;;;;;;15.20;10.20;;;;;;;9.80;69.49;99708.81;105538;1254;60426;-69
2023/04/25 05:01:19;;;;;;;22.60;11.70;;;;;;;9.92;69.23;99709.14;105636;1253;60417;-72
2023/04/25 05:04:00;;;;;;;15.60;10.60;;;;;;;10.04;68.87;99709.13;106023;1257;67909;-70
2023/04/25 05:06:45;;;;;;;13.70;9.70;;;;;;;10.16;68.57;99709.80;105628;1252;60915;-70
2023/04/25 05:09:44;;;;;;;13.80;9.30;;;;;;;10.30;68.27;99713.04;105360;1263;65483;-70
2023/04/25 05:12:28;;;;;;;14.00;7.40;;;;;;;10.43;67.97;99714.33;105758;1253;60505;-72
2023/04/25 05:15:21;;;;;;;10.90;8.30;;;;;;;10.58;67.56;99711.55;105874;1253;60604;-70
2023/04/25 05:18:07;;;;;;;12.20;8.60;;;;;;;10.72;67.23;99708.57;105651;1256;67710;-69
2023/04/25 05:21:12;;;;;;;13.50;8.10;;;;;;;10.83;66.96;99712.42;105485;1262;60665;-69
2023/04/25 05:24:06;;;;;;;12.50;8.40;;;;;;;10.95;66.70;99712.64;105259;1260;65622;-69
2023/04/25 05:31:45;;;;;;;11.90;8.40;;;;;;;11.22;65.93;99703.95;105413;1264;60587;-69
2023/04/25 05:34:16;;;;;;;8.60;6.60;;;;;;;11.33;65.49;99700.75;105917;1259;67799;-70
2023/04/25 05:36:51;;;;;;;10.30;7.70;;;;;;;11.44;64.96;99697.67;105708;1254;61094;-71
2023/04/25 05:39:18;;;;;;;7.80;6.10;;;;;;;11.54;64.76;99694.23;105571;1257;65328;-70
2023/04/25 05:42:04;;;;;;;9.60;6.10;;;;;;;11.65;64.18;99693.73;105558;1253;61723;-69
2023/04/25 05:44:52;;;;;;;6.50;5.10;;;;;;;11.76;63.63;99692.52;106130;1252;60725;-71
2023/04/25 05:47:30;;;;;;;14.90;6.40;;;;;;;11.87;63.13;99689.02;105655;1253;67680;-70
2023/04/25 05:50:16;;;;;;;9.10;6.50;;;;;;;11.98;62.87;99688.13;105717;1258;60576;-70
2023/04/25 05:52:55;;;;;;;7.80;6.30;;;;;;;12.09;62.47;99681.96;105486;1253;66277;-71
2023/04/25 05:55:35;;;;;;;7.20;5.80;;;;;;;12.19;62.03;99678.16;105803;1259;60459;-69
2023/04/25 05:58:16;;;;;;;7.40;6.10;;;;;;;12.28;61.66;99676.02;105806;1254;60513;-70
2023/04/25 06:00:46;;;;;;;8.50;5.90;;;;;;;12.38;61.65;99674.33;105617;1253;66495;-70
2023/04/25 06:03:14;;;;;;;7.70;5.70;;;;;;;12.51;61.56;99673.42;105484;1257;61017;-69
2023/04/25 06:05:46;;;;;;;;;;;;;;;12.64;61.23;99674.25;105940;1256;66459;-69
2023/04/25 06:08:13;;;;;;;11.20;6.90;;;;;;;12.76;60.96;99673.95;105559;1258;60594;-69
2023/04/25 06:10:44;;;;;;;11.10;8.00;;;;;;;12.88;60.98;99675.54;105694;1260;60501;-71
2023/04/25 06:13:11;;;;;;;9.80;7.60;;;;;;;13.00;61.09;99673.48;105989;1252;66712;-70
2023/04/25 06:15:38;;;;;;;11.20;8.40;;;;;;;13.11;61.05;99674.85;106112;1253;60548;-69
2023/04/25 06:18:05;;;;;;;11.20;7.80;;;;;;;13.22;61.19;99668.49;105685;1254;65403;-71
2023/04/25 06:20:33;;;;;;;11.60;8.20;;;;;;;13.34;61.12;99664.79;105804;1253;60556;-71
2023/04/25 06:23:00;;;;;;;11.20;7.30;;;;;;;13.46;60.84;99659.25;105576;1257;60361;-70
2023/04/25 06:25:37;;;;;;;10.70;7.80;;;;;;;13.57;60.57;99657.21;105705;1253;67723;-69
2023/04/25 06:28:04;;;;;;;9.70;7.20;;;;;;;13.68;60.54;99653.95;105769;1253;60613;-73
2023/04/25 06:30:31;;;;;;;11.60;7.30;;;;;;;13.81;60.35;99651.89;105789;1253;65537;-69
2023/04/25 06:33:03;;;;;;;11.20;7.40;;;;;;;13.95;60.14;99652.07;105589;1253;60490;-70
2023/04/25 06:35:30;;;;;;;10.20;6.90;;;;;;;14.08;59.80;99650.63;105610;1253;60423;-70
2023/04/25 06:37:58;;;;;;;9.10;6.40;;;;;;;14.22;59.63;99650.20;105945;1253;66534;-70
2023/04/25 06:40:25;;;;;;;9.00;5.90;;;;;;;14.38;59.18;99650.64;105797;1254;61044;-71
2023/04/25 06:42:52;;;;;;;10.20;5.40;;;;;;;14.52;58.33;99652.55;105660;1254;66609;-70
2023/04/25 06:45:52;;;;;;;7.50;3.60;;;;;;;14.67;56.60;99649.88;105509;1260;60424;-71
2023/04/25 06:48:19;;;;;;;5.00;3.60;;;;;;;14.74;54.49;99646.72;105632;1259;60355;-72
2023/04/25 06:50:47;;;;;;;4.00;2.80;;;;;;;14.83;53.15;99646.65;105569;1259;67772;-71
2023/04/25 06:53:14;;;;;;;6.40;3.20;;;;;;;14.93;52.17;99642.80;105915;1262;60547;-70
2023/04/25 06:55:43;;;;;;;7.30;3.60;;;;;;;15.06;51.49;99642.18;105640;1258;65532;-70
2023/04/25 06:58:17;;;;;;;7.30;4.00;;;;;;;15.19;51.33;99637.60;105841;1254;60508;-73
2023/04/25 07:00:55;;;;;;;7.40;4.20;;;;;;;15.32;50.90;99638.07;105771;1254;60392;-70
2023/04/25 07:03:23;;;;;;;7.60;4.40;;;;;;;15.45;50.43;99639.10;106221;1258;67405;-70
2023/04/25 07:05:54;;;;;;;7.30;4.90;;;;;;;15.59;50.22;99641.34;106482;1254;60621;-71
2023/04/25 07:08:23;;;;;;;7.70;4.70;;;;;;;15.71;49.98;99639.38;105730;1254;66587;-70
2023/04/25 07:10:50;;;;;;;8.20;5.30;;;;;;;15.82;50.12;99639.59;105960;1254;60427;-71
2023/04/25 07:13:17;;;;;;;9.70;5.50;;;;;;;15.93;49.86;99638.92;105731;1254;61619;-71
2023/04/25 07:15:44;;;;;;;7.60;5.30;;;;;;;16.04;50.22;99639.41;105731;1255;67360;-70
2023/04/25 07:18:11;;;;;;;11.30;5.00;;;;;;;16.18;50.20;99641.20;105626;1259;60590;-71
2023/04/25 07:20:38;;;;;;;8.10;4.60;;;;;;;16.28;49.13;99643.02;105900;1257;66778;-70
2023/04/25 07:23:06;;;;;;;11.40;4.60;;;;;;;16.35;49.00;99639.70;106101;1254;60859;-69
2023/04/25 07:25:34;;;;;;;9.10;4.50;;;;;;;16.44;48.99;99639.90;105815;1256;60341;-73
2023/04/25 07:28:02;;;;;;;9.70;4.70;;;;;;;16.50;49.25;99638.02;106405;1254;66336;-69
2023/04/25 07:30:29;;;;;;;7.70;4.60;;;;;;;16.51;49.70;99638.77;105802;1257;60778;-71
2023/04/25 07:32:56;;;;;;;6.50;4.50;;;;;;;16.53;49.45;99636.01;105765;1254;65475;-72
2023/04/25 07:35:24;;;;;;;6.40;4.60;;;;;;;16.55;49.24;99634.23;105808;1254;60431;-68
2023/04/25 07:37:51;;;;;;;9.70;5.00;;;;;;;16.61;48.97;99634.71;105680;1254;60472;-67
2023/04/25 07:40:18;;;;;;;10.90;5.00;;;;;;;16.71;48.93;99634.66;105808;1258;67574;-67
2023/04/25 07:42:52;;;;;;;14.10;7.80;;;;;;;16.82;48.86;99637.64;106053;1253;61015;-68
2023/04/25 07:45:24;;;;;;;16.40;9.20;;;;;;;16.92;48.64;99634.67;105841;1254;65120;-68
2023/04/25 07:47:54;;;;;;;15.40;9.80;;;;;;;17.04;48.32;99639.80;105560;1259;60369;-69
2023/04/25 07:50:21;;;;;;;23.30;12.90;;;;;;;17.17;48.19;99637.42;105331;1254;60491;-70
2023/04/25 07:52:48;;;;;;;20.10;12.10;;;;;;;17.31;47.57;99633.80;105649;1260;67406;-68
2023/04/25 07:55:21;;;;;;;20.00;11.20;;;;;;;17.39;46.62;99628.84;105547;1254;60574;-68
2023/04/25 07:58:02;;;;;;;14.20;9.20;;;;;;;17.45;46.26;99628.57;105456;1254;65493;-69
2023/04/25 08:00:30;;;;;;;17.30;9.00;;;;;;;17.52;46.63;99626.42;105750;1254;60658;-69
2023/04/25 08:03:13;;;;;;;11.50;8.70;;;;;;;17.63;46.61;99623.15;106736;1254;60438;-69
2023/04/25 08:05:41;;;;;;;12.00;9.00;;;;;;;17.74;45.94;99616.14;105663;1254;67774;-70
2023/04/25 08:08:09;;;;;;;11.50;8.20;;;;;;;17.82;45.85;99611.84;106046;1253;61742;-70
2023/04/25 08:10:36;;;;;;;15.50;9.30;;;;;;;17.92;46.06;99614.80;105608;1253;65501;-70
2023/04/25 08:13:03;;;;;;;18.10;9.50;;;;;;;18.02;45.81;99611.33;105797;1253;60552;-68
2023/04/25 08:15:31;;;;;;;18.10;9.30;;;;;;;18.08;45.36;99615.22;106488;1253;60425;-70
2023/04/25 08:17:59;;;;;;;14.90;9.30;;;;;;;18.16;45.09;99613.38;105679;1254;66376;-70
2023/04/25 08:20:27;;;;;;;13.80;8.50;;;;;;;18.25;44.58;99610.80;105637;1254;60430;-69
2023/04/25 08:22:55;;;;;;;16.60;8.80;;;;;;;18.32;44.25;99609.60;105646;1254;65717;-69
2023/04/25 08:25:32;;;;;;;9.40;5.80;;;;;;;18.38;43.92;99608.05;105482;1254;60542;-70
2023/04/25 08:27:59;;;;;;;10.80;6.60;;;;;;;18.44;43.31;99600.80;105520;1254;60450;-69
2023/04/25 08:30:26;;;;;;;13.80;7.70;;;;;;;18.47;42.99;99597.66;105780;1260;67344;-68
2023/04/25 08:32:54;;;;;;;16.90;10.50;;;;;;;18.53;43.11;99597.99;105585;1254;60665;-70
2023/04/25 08:35:48;;;;;;;10.00;7.70;;;;;;;18.64;43.10;99596.27;105623;1254;66375;-69
2023/04/25 08:38:15;;;;;;;11.30;7.80;;;;;;;18.67;42.16;99597.20;105732;1254;60514;-69
2023/04/25 08:40:43;;;;;;;15.60;8.20;;;;;;;18.60;42.19;99595.74;105761;1258;62274;-70
2023/04/25 08:43:15;;;;;;;12.20;8.20;;;;;;;18.54;42.58;99591.14;105541;1254;66728;-69
2023/04/25 08:45:42;;;;;;;14.00;8.60;;;;;;;18.47;42.51;99591.81;105694;1259;61042;-69
2023/04/25 08:48:15;;;;;;;15.90;9.50;;;;;;;18.35;42.20;99595.15;105826;1253;66917;-69
2023/04/25 08:50:50;;;;;;;13.80;9.00;;;;;;;18.19;42.14;99594.70;105700;1259;60458;-69
2023/04/25 08:53:22;;;;;;;16.90;8.80;;;;;;;18.08;42.28;99593.52;105404;1262;60455;-68
2023/04/25 08:55:49;;;;;;;16.80;9.30;;;;;;;18.01;42.74;99592.48;105465;1251;67379;-69
2023/04/25 08:58:17;;;;;;;15.40;9.40;;;;;;;17.96;42.72;99590.88;105633;1259;60734;-71
2023/04/25 09:00:45;;;;;;;15.60;8.60;;;;;;;17.92;42.63;99588.11;105578;1262;65248;-69
2023/04/25 09:03:12;;;;;;;14.80;8.30;;;;;;;18.00;43.04;99587.14;105574;1253;60557;-69
2023/04/25 09:05:41;;;;;;;11.40;6.50;;;;;;;18.19;42.85;99581.18;105789;1257;60310;-71
2023/04/25 09:08:10;;;;;;;13.10;6.60;;;;;;;18.42;42.65;99576.78;105684;1254;66523;-68
2023/04/25 09:10:37;;;;;;;8.10;5.90;;;;;;;18.65;42.37;99578.86;105658;1259;60309;-69
2023/04/25 09:13:06;;;;;;;12.20;6.00;;;;;;;18.85;42.10;99574.21;105663;1253;66551;-69
2023/04/25 09:15:51;;;;;;;12.30;5.40;;;;;;;19.05;42.53;99564.52;105517;1259;60454;-70
2023/04/25 09:18:43;;;;;;;9.00;5.10;;;;;;;19.34;41.66;99563.11;105549;1258;62205;-69
2023/04/25 09:21:15;;;;;;;8.40;5.00;;;;;;;19.52;41.09;99557.66;105703;1253;66518;-69
2023/04/25 09:23:58;;;;;;;9.70;5.40;;;;;;;19.72;40.64;99557.26;105842;1256;60762;-68
2023/04/25 09:26:25;;;;;;;8.00;5.00;;;;;;;19.89;40.08;99556.33;105637;1257;66605;-69
2023/04/25 09:29:07;;;;;;;8.90;4.90;;;;;;;20.03;40.01;99554.95;105446;1261;60425;-70
2023/04/25 09:31:36;;;;;;;11.10;6.00;;;;;;;20.21;40.17;99555.03;105568;1254;62061;-69
2023/04/25 09:34:04;;;;;;;9.40;6.10;;;;;;;20.38;39.72;99551.00;105652;1257;67849;-69
2023/04/25 09:36:41;;;;;;;10.30;5.90;;;;;;;20.55;39.33;99548.61;105859;1253;60586;-69
2023/04/25 09:39:19;;;;;;;8.20;5.30;;;;;;;20.71;39.04;99551.52;105858;1256;66579;-69
2023/04/25 09:41:55;;;;;;;8.70;5.00;;;;;;;20.84;38.83;99548.55;105865;1253;60842;-69
2023/04/25 09:44:25;;;;;;;10.20;5.20;;;;;;;21.01;38.78;99541.95;105631;1258;60504;-68
2023/04/25 09:46:55;;;;;;;10.30;5.40;;;;;;;21.21;38.22;99541.84;105789;1252;67692;-70
2023/04/25 09:49:27;;;;;;;;;;;;;;;21.34;36.91;99539.30;105604;1259;60508;-70
2023/04/25 09:52:13;;;;;;;7.90;4.60;;;;;;;21.43;36.43;99532.37;105710;1257;66951;-69
2023/04/25 09:54:50;;;;;;;8.40;4.60;;;;;;;21.51;36.28;99532.16;105671;1256;60522;-67
2023/04/25 09:57:24;;;;;;;7.70;4.50;;;;;;;21.59;36.42;99530.48;105818;1253;60508;-69
2023/04/25 09:59:54;;;;;;;11.70;5.60;;;;;;;21.73;36.69;99521.82;105843;1253;66676;-69
2023/04/25 10:02:23;;;;;;;8.10;5.50;;;;;;;21.86;36.95;99521.73;105585;1256;61386;-69
2023/04/25 10:04:54;;;;;;;8.70;5.30;;;;;;;21.98;37.08;99517.00;105507;1259;65342;-69
2023/04/25 10:07:30;;;;;;;11.00;4.80;;;;;;;22.15;37.31;99516.87;105563;1251;60447;-69
2023/04/25 10:10:00;;;;;;;10.40;4.80;;;;;;;22.29;36.06;99514.73;105543;1260;60435;-68
2023/04/25 10:12:27;;;;;;;10.80;5.30;;;;;;;22.33;34.71;99512.35;105732;1254;66250;-69
2023/04/25 10:14:54;;;;;;;9.80;5.20;;;;;;;22.38;34.42;99511.06;105522;1258;60451;-75
2023/04/25 10:17:21;;;;;;;9.10;4.00;;;;;;;22.50;34.81;99513.00;105707;1254;66547;-70
2023/04/25 10:19:48;;;;;;;9.20;4.50;;;;;;;22.63;34.75;99515.36;105560;1256;60540;-71
2023/04/25 10:22:18;;;;;;;6.20;4.30;;;;;;;22.74;33.90;99509.55;105526;1254;60436;-68
2023/04/25 10:24:46;;;;;;;8.60;5.30;;;;;;;22.77;33.81;99512.45;105325;1257;66351;-68
2023/04/25 10:27:13;;;;;;;7.20;4.40;;;;;;;22.76;33.52;99498.80;105427;1254;60838;-69
2023/04/25 10:29:40;;;;;;;5.80;3.70;;;;;;;22.74;33.79;99497.04;105287;1263;66485;-69
2023/04/25 10:32:06;;;;;;;5.80;3.80;;;;;;;22.83;33.72;99497.16;105307;1261;60687;-68
2023/04/25 10:34:41;;;;;;;6.90;3.20;;;;;;;22.98;33.80;99495.59;105366;1251;60327;-68
2023/04/25 10:37:11;;;;;;;5.80;2.80;;;;;;;23.10;33.52;99494.09;105563;1257;67864;-69
2023/04/25 10:39:42;;;;;;;5.10;2.70;;;;;;;23.25;34.08;99489.09;105594;1262;61097;-70
2023/04/25 10:42:09;;;;;;;4.00;3.00;;;;;;;23.45;33.65;99488.10;105748;1257;66549;-69
2023/04/25 10:44:37;;;;;;;5.50;3.80;;;;;;;23.65;33.09;99488.23;105587;1254;60497;-69
2023/04/25 10:47:06;;;;;;;5.30;3.30;;;;;;;23.74;32.51;99485.89;105535;1256;60485;-70
2023/04/25 10:49:38;;;;;;;6.40;3.80;;;;;;;23.74;32.57;99486.59;105884;1259;67475;-69
2023/04/25 10:52:20;;;;;;;5.00;3.30;;;;;;;23.76;32.31;99485.95;105965;1252;60913;-71
2023/04/25 10:54:54;;;;;;;6.40;4.20;;;;;;;23.78;31.78;99485.04;106117;1259;66576;-69
2023/04/25 10:57:41;;;;;;;10.70;4.30;;;;;;;23.80;31.74;99482.44;105756;1258;60543;-69
2023/04/25 11:00:16;;;;;;;6.40;4.20;;;;;;;23.81;31.49;99480.42;105980;1254;60554;-70
2023/04/25 11:02:52;;;;;;;7.40;3.80;;;;;;;23.83;31.84;99487.91;105811;1252;67829;-69
2023/04/25 11:05:36;;;;;;;6.20;3.60;;;;;;;23.91;31.97;99483.27;105510;1252;60987;-69
2023/04/25 11:08:32;;;;;;;6.10;3.70;;;;;;;24.03;32.08;99481.36;105770;1256;66577;-70
2023/04/25 11:10:59;;;;;;;6.10;3.30;;;;;;;24.15;31.66;99477.47;105784;1256;60385;-71
2023/04/25 11:13:30;;;;;;;7.00;3.50;;;;;;;24.24;31.78;99473.53;105874;1254;60439;-68
2023/04/25 11:15:57;;;;;;;6.00;3.00;;;;;;;24.44;32.34;99466.53;105758;1251;68281;-69
2023/04/25 11:18:41;;;;;;;5.80;3.00;;;;;;;24.71;31.80;99463.21;105894;1254;60857;-69
2023/04/25 11:21:09;;;;;;;4.50;2.70;;;;;;;24.84;31.32;99462.96;106085;1257;66611;-71
2023/04/25 11:23:36;;;;;;;4.90;2.70;;;;;;;24.81;31.09;99465.55;106040;1254;60432;-69
2023/04/25 11:26:03;;;;;;;5.20;3.50;;;;;;;24.83;31.02;99464.35;106132;1256;60454;-70
2023/04/25 11:28:30;;;;;;;3.10;2.10;;;;;;;24.78;30.69;99459.25;105960;1258;67898;-71
2023/04/25 11:30:57;;;;;;;5.10;3.30;;;;;;;24.65;30.08;99458.28;105899;1259;60860;-69
2023/04/25 11:33:25;;;;;;;7.40;3.50;;;;;;;24.66;30.29;99454.20;105885;1251;67169;-70
2023/04/25 11:35:56;;;;;;;7.90;2.80;;;;;;;24.74;30.85;99450.05;105954;1258;60543;-69
2023/04/25 11:38:23;;;;;;;5.20;2.60;;;;;;;24.91;31.10;99452.89;106012;1256;60425;-70
2023/04/25 11:40:52;;;;;;;5.00;2.50;;;;;;;25.11;30.65;99448.81;105629;1256;66443;-69
2023/04/25 11:43:22;;;;;;;4.30;2.50;;;;;;;25.23;30.36;99445.42;105640;1256;61318;-69